Wergea, Netherlands
Current Conditions -  °F | °C
As of 9:33 AM on Monday 26 Jan 2015 (Local Time) from EHLW Reporting Station
Haze Haze  
Wind Chill: 37°   Ceiling: 300
Heat Index: 43°   Visibility: 2.3mi
Dew Point: 43°   Wind: 12mph
Humidity: 100%   Direction: 230°SW
Pressure: 30"   Gusts: NA
Location:  53.15°N, 5.84°E
Report Text: EHLW 260833Z AUTO 23010KT 3800 BR OVC003 06/06 Q1016 YLO
Loading
Personal Weather Stations






























Interactive Weather Map New forecast layout! Learn more

10-Day Weather Forecast

Advertisements
Track Severe Weather on mobile